Sam Holmes — WDH8629 — position and weather

sailwx.info

Track history (hours):
 
Tides and Currents Weather Stations Pressure Air Temp Water Temp Dewpoint Dewpoint Depression Visibility Wind Speed Wind Dir Waves Ship Positions

Sam Holmes

Owner: NYCL Acquisition LLC, Brooklyn, NY. More information available from US FCC via Universal Licensing System and Coast Guard Vessel Documentation Center.

Last reported at 2017-Oct-19 00:57 UTC. Time now 2017-Oct-19 01:40 UTC.
Position N 40°40' W 074°01'.

Type: Passenger vessel. MMSI: 367659970.

Date/timePositionNaut miles runAvg speedWind from/ knotsBaromVisibWave heightAir tempDewpointWater temp
2017-Oct-19 00:57N 40°40' W 074°01'2 4.6
2017-Oct-19 00:30N 40°42' W 074°00'1 2.6
2017-Oct-19 00:00N 40°43' W 074°02'1 2.6
2017-Oct-18 23:31N 40°42' W 074°00'0 0.0
2017-Oct-18 23:00N 40°42' W 074°00'0 0.0
2017-Oct-18 22:31N 40°42' W 074°00'0 0.0
2017-Oct-18 22:00N 40°42' W 074°00'1 2.6
2017-Oct-18 21:30N 40°42' W 074°02'1 2.6
2017-Oct-18 21:00N 40°42' W 074°00'0 0.0
2017-Oct-18 20:30N 40°42' W 074°00'1 3.0
2017-Oct-18 20:00N 40°42' W 074°02'1 3.0
2017-Oct-18 19:30N 40°42' W 074°00'0 0.0
2017-Oct-18 19:00N 40°42' W 074°00'2 3.4
2017-Oct-18 18:30N 40°42' W 074°02'2 3.4
2017-Oct-18 18:00N 40°42' W 074°00'0 0.0
2017-Oct-18 17:30N 40°42' W 074°00'1 2.4
2017-Oct-18 17:00N 40°42' W 074°02'1 2.4
2017-Oct-18 16:30N 40°42' W 074°00'0 0.0
2017-Oct-18 16:00N 40°42' W 074°00'1 2.9
2017-Oct-18 15:30N 40°42' W 074°02'1 2.9
2017-Oct-18 15:00N 40°42' W 074°00'2 2.0
2017-Oct-18 14:00N 40°40' W 074°01'0 0.0
2017-Oct-18 13:30N 40°40' W 074°01'0 0.0
2017-Oct-17 17:50N 40°40' W 074°01'410.7
2017-Oct-17 17:31N 40°43' W 073°58'1 2.3
2017-Oct-17 17:00N 40°42' W 073°59'2 4.4
2017-Oct-17 16:30N 40°44' W 073°58'2 3.7
2017-Oct-17 16:00N 40°43' W 073°59'0 0.0
2017-Oct-17 15:31N 40°43' W 073°59'3 5.7
2017-Oct-17 15:00N 40°40' W 074°01'0 0.0
2017-Oct-17 14:30N 40°40' W 074°01'5 4.7
2017-Oct-17 13:31N 40°45' W 073°58'2 4.9
2017-Oct-17 13:00N 40°42' W 073°59'2 4.9
2017-Oct-17 12:30N 40°45' W 073°58'5 9.4
2017-Oct-17 12:00N 40°40' W 074°01'0 0.0
2017-Oct-17 11:30N 40°40' W 074°01'0 0.0
2017-Oct-17 01:05N 40°40' W 074°01'0 0.0
2017-Oct-17 01:01N 40°40' W 074°01'2 4.1
2017-Oct-17 00:30N 40°42' W 074°00'1 2.8
2017-Oct-17 00:01N 40°43' W 074°02'1 2.7
2017-Oct-16 23:31N 40°42' W 074°00'0 0.0
2017-Oct-16 23:01N 40°42' W 074°00'0 0.0
2017-Oct-16 22:31N 40°42' W 074°00'0 0.0
2017-Oct-16 22:01N 40°42' W 074°00'2 3.1
2017-Oct-16 21:30N 40°42' W 074°02'2 3.1
2017-Oct-16 21:00N 40°42' W 074°00'0 0.0
2017-Oct-16 20:31N 40°42' W 074°00'1 3.0
2017-Oct-16 20:01N 40°42' W 074°02'1 3.0
2017-Oct-16 19:30N 40°42' W 074°00'0 0.0
2017-Oct-16 19:00N 40°42' W 074°00'1 2.9
2017-Oct-16 18:30N 40°42' W 074°02'1 2.9
2017-Oct-16 18:00N 40°42' W 074°00'0 0.1
2017-Oct-16 17:30N 40°42' W 074°00'1 2.1
2017-Oct-16 17:00N 40°43' W 074°01'1 2.1
2017-Oct-16 16:30N 40°42' W 074°00'0 0.0
2017-Oct-16 16:00N 40°42' W 074°00'1 2.8
2017-Oct-16 15:30N 40°42' W 074°02'1 2.8
2017-Oct-16 15:00N 40°42' W 074°00'2 4.1
2017-Oct-16 14:31N 40°40' W 074°01'0 0.0
2017-Oct-15 06:05N 40°40' W 074°01'0 2.7
2017-Oct-15 06:00N 40°40' W 074°01'2 4.1
2017-Oct-15 05:30N 40°42' W 074°00'1 2.5
2017-Oct-15 05:00N 40°41' W 074°01'1 2.5
2017-Oct-15 04:30N 40°42' W 074°00'0 0.1
2017-Oct-15 04:01N 40°42' W 074°00'0 0.0
2017-Oct-15 03:30N 40°42' W 074°00'1 2.4
2017-Oct-15 03:01N 40°41' W 074°01'1 2.3
2017-Oct-15 02:30N 40°42' W 074°00'1 2.6
2017-Oct-15 02:01N 40°41' W 074°01'0 0.0
2017-Oct-15 01:31N 40°41' W 074°01'1 2.5
2017-Oct-15 01:01N 40°42' W 074°00'1 2.5
2017-Oct-15 00:31N 40°41' W 074°01'1 2.5
2017-Oct-15 00:01N 40°42' W 074°00'1 2.5
2017-Oct-14 23:31N 40°41' W 074°01'1 2.5
2017-Oct-14 23:01N 40°42' W 074°00'1 2.5
2017-Oct-14 22:31N 40°41' W 074°01'1 2.5
2017-Oct-14 22:00N 40°42' W 074°00'0 0.1
2017-Oct-14 21:30N 40°42' W 074°00'2 4.1
2017-Oct-14 21:00N 40°40' W 074°01'0 0.3
2017-Oct-14 20:31N 40°40' W 074°01'2 3.6
2017-Oct-14 20:00N 40°42' W 074°00'2 3.6
2017-Oct-14 19:31N 40°40' W 074°01'0 0.0
2017-Oct-14 19:00N 40°40' W 074°01'0 0.0
2017-Oct-14 18:30N 40°40' W 074°01'0 0.0
2017-Oct-14 17:59N 40°40' W 074°01'0 0.0
2017-Oct-14 17:30N 40°40' W 074°01'0 0.0
2017-Oct-14 17:00N 40°40' W 074°01'0 0.0
2017-Oct-14 16:30N 40°40' W 074°01'0 0.0
2017-Oct-14 16:00N 40°40' W 074°01'0 0.0
2017-Oct-14 15:30N 40°40' W 074°01'0 0.0
2017-Oct-14 15:01N 40°40' W 074°01'0 0.0
2017-Oct-14 14:30N 40°40' W 074°01'0 0.0
2017-Oct-14 14:01N 40°40' W 074°01'0 0.0
2017-Oct-14 13:30N 40°40' W 074°01'0 0.0
2017-Oct-14 13:00N 40°40' W 074°01'0 0.0
2017-Oct-14 12:30N 40°40' W 074°01'0 0.0
2017-Oct-14 12:00N 40°40' W 074°01'0 0.0
2017-Oct-13 01:43N 40°40' W 074°01'1 6.1
2017-Oct-13 01:30N 40°42' W 074°00'0 0.1
2017-Oct-13 01:00N 40°42' W 074°00'1 2.7
2017-Oct-13 00:30N 40°40' W 074°01'0 0.0
2017-Oct-12 21:59N 40°40' W 074°01'2 4.0
2017-Oct-12 21:30N 40°42' W 074°00'2 3.8
2017-Oct-12 21:00N 40°40' W 074°01'0 0.0
2017-Oct-12 01:09N 40°40' W 074°01'0 0.5
2017-Oct-12 01:00N 40°40' W 074°01'2 4.4
2017-Oct-12 00:30N 40°42' W 074°00'2 3.9
2017-Oct-12 00:00N 40°41' W 074°02'2 3.9
2017-Oct-11 23:30N 40°42' W 074°00'0 0.0
2017-Oct-11 23:00N 40°42' W 074°00'0 0.0
2017-Oct-11 22:30N 40°42' W 074°00'0 0.0
2017-Oct-11 22:01N 40°42' W 074°00'2 4.2
2017-Oct-11 21:30N 40°41' W 074°03'2 4.2
2017-Oct-11 21:00N 40°42' W 074°00'0 0.1
2017-Oct-11 20:30N 40°42' W 074°00'2 4.5
2017-Oct-11 20:00N 40°41' W 074°03'2 4.5
2017-Oct-11 19:30N 40°42' W 074°00'0 0.0
2017-Oct-11 19:01N 40°42' W 074°00'2 3.7
2017-Oct-11 18:30N 40°41' W 074°02'2 3.7
2017-Oct-11 18:00N 40°42' W 074°00'0 0.0
2017-Oct-11 17:30N 40°42' W 074°00'2 4.4
2017-Oct-11 17:01N 40°41' W 074°03'1 0.1
2017-Oct-11 00:00N 40°41' W 074°01'1 2.3
2017-Oct-10 23:30N 40°42' W 074°00'0 0.6
2017-Oct-10 23:00N 40°42' W 074°00'1 1.6
2017-Oct-10 22:30N 40°41' W 074°01'1 2.6
2017-Oct-10 22:00N 40°42' W 074°00'0 0.1
2017-Oct-10 21:30N 40°42' W 074°00'2 4.0
2017-Oct-10 21:00N 40°40' W 074°01'0 0.0
2017-Oct-10 20:30N 40°40' W 074°01'0 0.0
2017-Oct-10 01:39N 40°40' W 074°01'1 8.3
2017-Oct-10 01:30N 40°42' W 074°01'1 2.5
2017-Oct-10 01:00N 40°40' W 074°01'1 1.9
2017-Oct-10 00:30N 40°41' W 074°01'1 1.1
2017-Oct-10 00:00N 40°41' W 074°01'0 0.9
2017-Oct-09 23:30N 40°40' W 074°01'2 3.7
2017-Oct-09 23:00N 40°42' W 074°00'2 4.0
2017-Oct-09 22:31N 40°40' W 074°01'2 3.1
2017-Oct-09 22:01N 40°42' W 074°00'1 2.8
2017-Oct-09 21:31N 40°41' W 074°01'0 0.4
2017-Oct-09 21:00N 40°40' W 074°01'2 3.7
2017-Oct-09 20:30N 40°42' W 074°00'2 4.0
2017-Oct-09 20:00N 40°40' W 074°01'1 2.2
2017-Oct-09 19:31N 40°41' W 074°01'1 2.0
2017-Oct-09 19:01N 40°40' W 074°01'0 0.3
2017-Oct-09 18:30N 40°40' W 074°01'2 3.7
2017-Oct-09 18:00N 40°42' W 074°00'2 4.0
2017-Oct-09 17:30N 40°40' W 074°01'1 2.9
2017-Oct-09 17:00N 40°42' W 074°01'1 1.6
2017-Oct-09 16:30N 40°41' W 074°01'1 1.1
2017-Oct-09 16:00N 40°40' W 074°01'2 3.7
2017-Oct-09 15:30N 40°42' W 074°00'2 3.8
2017-Oct-09 15:00N 40°40' W 074°01'0 0.0
2017-Oct-09 14:30N 40°40' W 074°01'0 0.0
2017-Oct-09 01:33N 40°40' W 074°01'0 1.7
2017-Oct-09 01:30N 40°40' W 074°01'0 0.4
2017-Oct-09 01:00N 40°40' W 074°01'  
Track history (hours):
 
Tides and Currents Weather Stations Pressure Air Temp Water Temp Dewpoint Dewpoint Depression Visibility Wind Speed Wind Dir Waves Ship Positions

Sam Holmes

Owner: NYCL Acquisition LLC, Brooklyn, NY. More information available from US FCC via Universal Licensing System and Coast Guard Vessel Documentation Center.

Last reported at 2017-Oct-19 00:57 UTC. Time now 2017-Oct-19 01:40 UTC.
Position N 40°40' W 074°01'.

Type: Passenger vessel. MMSI: 367659970.

Date/timePositionNaut miles runAvg speedWind from/ knotsBaromVisibWave heightAir tempDewpointWater temp
2017-Oct-19 00:57N 40°40' W 074°01'2 4.6
2017-Oct-19 00:30N 40°42' W 074°00'1 2.6
2017-Oct-19 00:00N 40°43' W 074°02'1 2.6
2017-Oct-18 23:31N 40°42' W 074°00'0 0.0
2017-Oct-18 23:00N 40°42' W 074°00'0 0.0
2017-Oct-18 22:31N 40°42' W 074°00'0 0.0
2017-Oct-18 22:00N 40°42' W 074°00'1 2.6
2017-Oct-18 21:30N 40°42' W 074°02'1 2.6
2017-Oct-18 21:00N 40°42' W 074°00'0 0.0
2017-Oct-18 20:30N 40°42' W 074°00'1 3.0
2017-Oct-18 20:00N 40°42' W 074°02'1 3.0
2017-Oct-18 19:30N 40°42' W 074°00'0 0.0
2017-Oct-18 19:00N 40°42' W 074°00'2 3.4
2017-Oct-18 18:30N 40°42' W 074°02'2 3.4
2017-Oct-18 18:00N 40°42' W 074°00'0 0.0
2017-Oct-18 17:30N 40°42' W 074°00'1 2.4
2017-Oct-18 17:00N 40°42' W 074°02'1 2.4
2017-Oct-18 16:30N 40°42' W 074°00'0 0.0
2017-Oct-18 16:00N 40°42' W 074°00'1 2.9
2017-Oct-18 15:30N 40°42' W 074°02'1 2.9
2017-Oct-18 15:00N 40°42' W 074°00'2 2.0
2017-Oct-18 14:00N 40°40' W 074°01'0 0.0
2017-Oct-18 13:30N 40°40' W 074°01'0 0.0
2017-Oct-17 17:50N 40°40' W 074°01'410.7
2017-Oct-17 17:31N 40°43' W 073°58'1 2.3
2017-Oct-17 17:00N 40°42' W 073°59'2 4.4
2017-Oct-17 16:30N 40°44' W 073°58'2 3.7
2017-Oct-17 16:00N 40°43' W 073°59'0 0.0
2017-Oct-17 15:31N 40°43' W 073°59'3 5.7
2017-Oct-17 15:00N 40°40' W 074°01'0 0.0
2017-Oct-17 14:30N 40°40' W 074°01'5 4.7
2017-Oct-17 13:31N 40°45' W 073°58'2 4.9
2017-Oct-17 13:00N 40°42' W 073°59'2 4.9
2017-Oct-17 12:30N 40°45' W 073°58'5 9.4
2017-Oct-17 12:00N 40°40' W 074°01'0 0.0
2017-Oct-17 11:30N 40°40' W 074°01'0 0.0
2017-Oct-17 01:05N 40°40' W 074°01'0 0.0
2017-Oct-17 01:01N 40°40' W 074°01'2 4.1
2017-Oct-17 00:30N 40°42' W 074°00'1 2.8
2017-Oct-17 00:01N 40°43' W 074°02'1 2.7
2017-Oct-16 23:31N 40°42' W 074°00'0 0.0
2017-Oct-16 23:01N 40°42' W 074°00'0 0.0
2017-Oct-16 22:31N 40°42' W 074°00'0 0.0
2017-Oct-16 22:01N 40°42' W 074°00'2 3.1
2017-Oct-16 21:30N 40°42' W 074°02'2 3.1
2017-Oct-16 21:00N 40°42' W 074°00'0 0.0
2017-Oct-16 20:31N 40°42' W 074°00'1 3.0
2017-Oct-16 20:01N 40°42' W 074°02'1 3.0
2017-Oct-16 19:30N 40°42' W 074°00'0 0.0
2017-Oct-16 19:00N 40°42' W 074°00'1 2.9
2017-Oct-16 18:30N 40°42' W 074°02'1 2.9
2017-Oct-16 18:00N 40°42' W 074°00'0 0.1
2017-Oct-16 17:30N 40°42' W 074°00'1 2.1
2017-Oct-16 17:00N 40°43' W 074°01'1 2.1
2017-Oct-16 16:30N 40°42' W 074°00'0 0.0
2017-Oct-16 16:00N 40°42' W 074°00'1 2.8
2017-Oct-16 15:30N 40°42' W 074°02'1 2.8
2017-Oct-16 15:00N 40°42' W 074°00'2 4.1
2017-Oct-16 14:31N 40°40' W 074°01'0 0.0
2017-Oct-15 06:05N 40°40' W 074°01'0 2.7
2017-Oct-15 06:00N 40°40' W 074°01'2 4.1
2017-Oct-15 05:30N 40°42' W 074°00'1 2.5
2017-Oct-15 05:00N 40°41' W 074°01'1 2.5
2017-Oct-15 04:30N 40°42' W 074°00'0 0.1
2017-Oct-15 04:01N 40°42' W 074°00'0 0.0
2017-Oct-15 03:30N 40°42' W 074°00'1 2.4
2017-Oct-15 03:01N 40°41' W 074°01'1 2.3
2017-Oct-15 02:30N 40°42' W 074°00'1 2.6
2017-Oct-15 02:01N 40°41' W 074°01'0 0.0
2017-Oct-15 01:31N 40°41' W 074°01'1 2.5
2017-Oct-15 01:01N 40°42' W 074°00'1 2.5
2017-Oct-15 00:31N 40°41' W 074°01'1 2.5
2017-Oct-15 00:01N 40°42' W 074°00'1 2.5
2017-Oct-14 23:31N 40°41' W 074°01'1 2.5
2017-Oct-14 23:01N 40°42' W 074°00'1 2.5
2017-Oct-14 22:31N 40°41' W 074°01'1 2.5
2017-Oct-14 22:00N 40°42' W 074°00'0 0.1
2017-Oct-14 21:30N 40°42' W 074°00'2 4.1
2017-Oct-14 21:00N 40°40' W 074°01'0 0.3
2017-Oct-14 20:31N 40°40' W 074°01'2 3.6
2017-Oct-14 20:00N 40°42' W 074°00'2 3.6
2017-Oct-14 19:31N 40°40' W 074°01'0 0.0
2017-Oct-14 19:00N 40°40' W 074°01'0 0.0
2017-Oct-14 18:30N 40°40' W 074°01'0 0.0
2017-Oct-14 17:59N 40°40' W 074°01'0 0.0
2017-Oct-14 17:30N 40°40' W 074°01'0 0.0
2017-Oct-14 17:00N 40°40' W 074°01'0 0.0
2017-Oct-14 16:30N 40°40' W 074°01'0 0.0
2017-Oct-14 16:00N 40°40' W 074°01'0 0.0
2017-Oct-14 15:30N 40°40' W 074°01'0 0.0
2017-Oct-14 15:01N 40°40' W 074°01'0 0.0
2017-Oct-14 14:30N 40°40' W 074°01'0 0.0
2017-Oct-14 14:01N 40°40' W 074°01'0 0.0
2017-Oct-14 13:30N 40°40' W 074°01'0 0.0
2017-Oct-14 13:00N 40°40' W 074°01'0 0.0
2017-Oct-14 12:30N 40°40' W 074°01'0 0.0
2017-Oct-14 12:00N 40°40' W 074°01'0 0.0
2017-Oct-13 01:43N 40°40' W 074°01'1 6.1
2017-Oct-13 01:30N 40°42' W 074°00'0 0.1
2017-Oct-13 01:00N 40°42' W 074°00'1 2.7
2017-Oct-13 00:30N 40°40' W 074°01'0 0.0
2017-Oct-12 21:59N 40°40' W 074°01'2 4.0
2017-Oct-12 21:30N 40°42' W 074°00'2 3.8
2017-Oct-12 21:00N 40°40' W 074°01'0 0.0
2017-Oct-12 01:09N 40°40' W 074°01'0 0.5
2017-Oct-12 01:00N 40°40' W 074°01'2 4.4
2017-Oct-12 00:30N 40°42' W 074°00'2 3.9
2017-Oct-12 00:00N 40°41' W 074°02'2 3.9
2017-Oct-11 23:30N 40°42' W 074°00'0 0.0
2017-Oct-11 23:00N 40°42' W 074°00'0 0.0
2017-Oct-11 22:30N 40°42' W 074°00'0 0.0
2017-Oct-11 22:01N 40°42' W 074°00'2 4.2
2017-Oct-11 21:30N 40°41' W 074°03'2 4.2
2017-Oct-11 21:00N 40°42' W 074°00'0 0.1
2017-Oct-11 20:30N 40°42' W 074°00'2 4.5
2017-Oct-11 20:00N 40°41' W 074°03'2 4.5
2017-Oct-11 19:30N 40°42' W 074°00'0 0.0
2017-Oct-11 19:01N 40°42' W 074°00'2 3.7
2017-Oct-11 18:30N 40°41' W 074°02'2 3.7
2017-Oct-11 18:00N 40°42' W 074°00'0 0.0
2017-Oct-11 17:30N 40°42' W 074°00'2 4.4
2017-Oct-11 17:01N 40°41' W 074°03'1 0.1
2017-Oct-11 00:00N 40°41' W 074°01'1 2.3
2017-Oct-10 23:30N 40°42' W 074°00'0 0.6
2017-Oct-10 23:00N 40°42' W 074°00'1 1.6
2017-Oct-10 22:30N 40°41' W 074°01'1 2.6
2017-Oct-10 22:00N 40°42' W 074°00'0 0.1
2017-Oct-10 21:30N 40°42' W 074°00'2 4.0
2017-Oct-10 21:00N 40°40' W 074°01'0 0.0
2017-Oct-10 20:30N 40°40' W 074°01'0 0.0
2017-Oct-10 01:39N 40°40' W 074°01'1 8.3
2017-Oct-10 01:30N 40°42' W 074°01'1 2.5
2017-Oct-10 01:00N 40°40' W 074°01'1 1.9
2017-Oct-10 00:30N 40°41' W 074°01'1 1.1
2017-Oct-10 00:00N 40°41' W 074°01'0 0.9
2017-Oct-09 23:30N 40°40' W 074°01'2 3.7
2017-Oct-09 23:00N 40°42' W 074°00'2 4.0
2017-Oct-09 22:31N 40°40' W 074°01'2 3.1
2017-Oct-09 22:01N 40°42' W 074°00'1 2.8
2017-Oct-09 21:31N 40°41' W 074°01'0 0.4
2017-Oct-09 21:00N 40°40' W 074°01'2 3.7
2017-Oct-09 20:30N 40°42' W 074°00'2 4.0
2017-Oct-09 20:00N 40°40' W 074°01'1 2.2
2017-Oct-09 19:31N 40°41' W 074°01'1 2.0
2017-Oct-09 19:01N 40°40' W 074°01'0 0.3
2017-Oct-09 18:30N 40°40' W 074°01'2 3.7
2017-Oct-09 18:00N 40°42' W 074°00'2 4.0
2017-Oct-09 17:30N 40°40' W 074°01'1 2.9
2017-Oct-09 17:00N 40°42' W 074°01'1 1.6
2017-Oct-09 16:30N 40°41' W 074°01'1 1.1
2017-Oct-09 16:00N 40°40' W 074°01'2 3.7
2017-Oct-09 15:30N 40°42' W 074°00'2 3.8
2017-Oct-09 15:00N 40°40' W 074°01'0 0.0
2017-Oct-09 14:30N 40°40' W 074°01'0 0.0
2017-Oct-09 01:33N 40°40' W 074°01'0 1.7
2017-Oct-09 01:30N 40°40' W 074°01'0 0.4
2017-Oct-09 01:00N 40°40' W 074°01'  

Dump ship's entire track history